Etusivu
METAR-TAF:

METAR-TAF

Lentoasemat :

Pond Inletin lentoasema

Pond Inlet, Nunavut, Kanada

Leveyspiiri: 72-42N, Pituuspiiri: 077-58W, korkeus merenpinnasta: 59 m

Tämänhetkinen sää

Tämä raportti tehtiin 43 minuuttia sitten, kello 16.00 UTC
Tuuli 5 kn etelästä/kaakosta
Lämpötila -32°C
Kosteus 67%
Ilmanpaine 1023 hPa
Näkyvyys: 48.3 km
selkeää

METAR: CYIO 251600Z 16005KT 30SM SKC M32/M36 A3021 RMK S00 AFT 23UTC/49/SNW CVR/MEDIUM PACK SLP246

Aika: 11:43 (16:43 UTC)

Sääennuste

Tämä raportti tehtiin 4 tuntia ja 5 minuuttia sitten, kello 12.38 UTC
Ennuste voimassa 25. päivästä klo 13 UTC - 26. päivään klo 01 UTC
Tuuli 5 kn etelästä
Näkyvyys: 10 km
Muutamia pilviä 4000 ft:n korkeudessa
Ajoittain
25. päivästä klo 13 UTC - 26. päivään klo 01 UTC
Näkyvyys: 8.0 km
jääkiteitä

TAF: CYIO 251238Z 2513/2601 18005KT P6SM FEW040 TEMPO 2513/2601 5SM IC RMK FCST BASED ON AUTO OBS. NXT FCST BY 251900Z

Säähavainnot ja -ennusteet yli 4000 lentoasemalta (METAR- ja TAF-raportit).

Käytössä olevat sääasemat on merkitty karttaan keltaisilla ja punaisilla pisteillä.

Aseta hiiri pisteen päälle nähdäksesi sääaseman nimen.

Klikkaa sitten nähdäksesi säähavainnot ja -ennusteet.

Kartan vaihtaminen: klikkaa mustalla rastilla varustettuja vihreitä pisteitä, niin voit zoomata sisään; viivalla varustettua vihreää pistettä, niin voit zoomata ulos tai vihreitä nuolia, niin pääset viereisille kartoille.


METAR-TAF: